sensor_id;sensor_type;location;lat;lon;timestamp;P1;durP1;ratioP1;P2;durP2;ratioP2
18407;SDS011;9330;52.210;21.174;2022-10-16T00:00:48;16.25;;;12.68;;
18407;SDS011;9330;52.210;21.174;2022-10-16T00:03:15;14.95;;;12.65;;
18407;SDS011;9330;52.210;21.174;2022-10-16T00:05:42;18.42;;;13.82;;
18407;SDS011;9330;52.210;21.174;2022-10-16T00:08:10;16.25;;;13.82;;
18407;SDS011;9330;52.210;21.174;2022-10-16T00:10:39;19.92;;;14.68;;
18407;SDS011;9330;52.210;21.174;2022-10-16T00:13:07;17.92;;;14.63;;
18407;SDS011;9330;52.210;21.174;2022-10-16T00:15:34;17.67;;;14.48;;
18407;SDS011;9330;52.210;21.174;2022-10-16T00:18:04;16.27;;;14.57;;
18407;SDS011;9330;52.210;21.174;2022-10-16T00:20:33;20.83;;;14.88;;
18407;SDS011;9330;52.210;21.174;2022-10-16T00:23:01;17.70;;;15.35;;
18407;SDS011;9330;52.210;21.174;2022-10-16T00:25:29;17.95;;;14.77;;
18407;SDS011;9330;52.210;21.174;2022-10-16T00:27:59;18.67;;;15.48;;
18407;SDS011;9330;52.210;21.174;2022-10-16T00:30:26;16.95;;;14.52;;
18407;SDS011;9330;52.210;21.174;2022-10-16T00:32:54;18.67;;;14.98;;
18407;SDS011;9330;52.210;21.174;2022-10-16T00:35:21;18.90;;;15.52;;
18407;SDS011;9330;52.210;21.174;2022-10-16T00:37:48;20.35;;;15.73;;
18407;SDS011;9330;52.210;21.174;2022-10-16T00:40:15;19.17;;;15.85;;
18407;SDS011;9330;52.210;21.174;2022-10-16T00:42:43;17.58;;;15.50;;
18407;SDS011;9330;52.210;21.174;2022-10-16T00:45:12;19.20;;;16.15;;
18407;SDS011;9330;52.210;21.174;2022-10-16T00:47:39;18.27;;;15.88;;
18407;SDS011;9330;52.210;21.174;2022-10-16T00:53:29;22.42;;;17.08;;
18407;SDS011;9330;52.210;21.174;2022-10-16T00:55:57;17.92;;;16.00;;
18407;SDS011;9330;52.210;21.174;2022-10-16T00:58:24;19.23;;;15.50;;
18407;SDS011;9330;52.210;21.174;2022-10-16T01:00:53;18.17;;;15.25;;
18407;SDS011;9330;52.210;21.174;2022-10-16T01:03:24;18.45;;;15.90;;
18407;SDS011;9330;52.210;21.174;2022-10-16T01:05:55;18.63;;;15.38;;
18407;SDS011;9330;52.210;21.174;2022-10-16T01:08:31;20.73;;;15.85;;
18407;SDS011;9330;52.210;21.174;2022-10-16T01:11:07;17.52;;;15.13;;
18407;SDS011;9330;52.210;21.174;2022-10-16T01:13:40;22.77;;;16.52;;
18407;SDS011;9330;52.210;21.174;2022-10-16T01:16:13;19.75;;;15.15;;
18407;SDS011;9330;52.210;21.174;2022-10-16T01:18:49;21.55;;;16.38;;
18407;SDS011;9330;52.210;21.174;2022-10-16T01:21:24;18.05;;;16.00;;
18407;SDS011;9330;52.210;21.174;2022-10-16T01:23:57;19.38;;;17.00;;
18407;SDS011;9330;52.210;21.174;2022-10-16T01:26:31;22.60;;;17.65;;
18407;SDS011;9330;52.210;21.174;2022-10-16T01:29:13;19.17;;;16.45;;
18407;SDS011;9330;52.210;21.174;2022-10-16T01:31:47;21.70;;;16.88;;
18407;SDS011;9330;52.210;21.174;2022-10-16T01:34:19;23.40;;;17.90;;
18407;SDS011;9330;52.210;21.174;2022-10-16T01:36:51;21.95;;;15.88;;
18407;SDS011;9330;52.210;21.174;2022-10-16T01:39:22;18.20;;;16.23;;
18407;SDS011;9330;52.210;21.174;2022-10-16T01:41:54;20.80;;;17.38;;
18407;SDS011;9330;52.210;21.174;2022-10-16T01:44:29;19.67;;;16.73;;
18407;SDS011;9330;52.210;21.174;2022-10-16T01:46:58;19.05;;;16.95;;
18407;SDS011;9330;52.210;21.174;2022-10-16T01:49:27;20.83;;;16.80;;
18407;SDS011;9330;52.210;21.174;2022-10-16T01:51:58;20.27;;;16.88;;
18407;SDS011;9330;52.210;21.174;2022-10-16T01:54:28;21.70;;;17.38;;
18407;SDS011;9330;52.210;21.174;2022-10-16T01:56:58;22.80;;;17.58;;
18407;SDS011;9330;52.210;21.174;2022-10-16T01:59:29;22.67;;;17.30;;
18407;SDS011;9330;52.210;21.174;2022-10-16T02:01:59;19.30;;;16.33;;
18407;SDS011;9330;52.210;21.174;2022-10-16T02:04:30;24.48;;;18.25;;
18407;SDS011;9330;52.210;21.174;2022-10-16T02:07:00;19.95;;;17.83;;
18407;SDS011;9330;52.210;21.174;2022-10-16T02:09:27;27.55;;;19.30;;
18407;SDS011;9330;52.210;21.174;2022-10-16T02:11:56;25.70;;;18.05;;
18407;SDS011;9330;52.210;21.174;2022-10-16T02:14:29;21.75;;;18.17;;
18407;SDS011;9330;52.210;21.174;2022-10-16T02:16:56;20.58;;;17.48;;
18407;SDS011;9330;52.210;21.174;2022-10-16T02:19:23;23.08;;;17.95;;
18407;SDS011;9330;52.210;21.174;2022-10-16T02:21:51;20.80;;;17.35;;
18407;SDS011;9330;52.210;21.174;2022-10-16T02:24:24;23.77;;;18.83;;
18407;SDS011;9330;52.210;21.174;2022-10-16T02:26:57;21.30;;;17.85;;
18407;SDS011;9330;52.210;21.174;2022-10-16T02:29:35;20.98;;;17.45;;
18407;SDS011;9330;52.210;21.174;2022-10-16T02:32:06;21.92;;;18.17;;
18407;SDS011;9330;52.210;21.174;2022-10-16T02:34:35;21.08;;;17.20;;
18407;SDS011;9330;52.210;21.174;2022-10-16T02:37:03;21.88;;;18.15;;
18407;SDS011;9330;52.210;21.174;2022-10-16T02:39:32;22.00;;;18.40;;
18407;SDS011;9330;52.210;21.174;2022-10-16T02:42:00;22.08;;;17.90;;
18407;SDS011;9330;52.210;21.174;2022-10-16T02:44:27;23.10;;;17.13;;
18407;SDS011;9330;52.210;21.174;2022-10-16T02:46:56;20.67;;;17.67;;
18407;SDS011;9330;52.210;21.174;2022-10-16T02:49:23;20.48;;;18.15;;
18407;SDS011;9330;52.210;21.174;2022-10-16T02:51:50;19.95;;;17.85;;
18407;SDS011;9330;52.210;21.174;2022-10-16T02:54:17;21.30;;;18.45;;
18407;SDS011;9330;52.210;21.174;2022-10-16T02:56:43;20.35;;;17.05;;
18407;SDS011;9330;52.210;21.174;2022-10-16T02:59:10;22.92;;;17.50;;
18407;SDS011;9330;52.210;21.174;2022-10-16T03:01:37;21.30;;;16.92;;
18407;SDS011;9330;52.210;21.174;2022-10-16T03:04:06;21.27;;;18.17;;
18407;SDS011;9330;52.210;21.174;2022-10-16T03:06:33;20.10;;;17.40;;
18407;SDS011;9330;52.210;21.174;2022-10-16T03:09:00;21.40;;;17.80;;
18407;SDS011;9330;52.210;21.174;2022-10-16T03:11:27;24.15;;;17.85;;
18407;SDS011;9330;52.210;21.174;2022-10-16T03:13:54;21.55;;;17.58;;
18407;SDS011;9330;52.210;21.174;2022-10-16T03:16:21;19.77;;;17.00;;
18407;SDS011;9330;52.210;21.174;2022-10-16T03:18:48;21.27;;;17.80;;
18407;SDS011;9330;52.210;21.174;2022-10-16T03:21:16;19.92;;;17.23;;
18407;SDS011;9330;52.210;21.174;2022-10-16T03:23:43;20.92;;;17.00;;
18407;SDS011;9330;52.210;21.174;2022-10-16T03:26:10;20.33;;;16.50;;
18407;SDS011;9330;52.210;21.174;2022-10-16T03:28:37;22.92;;;16.85;;
18407;SDS011;9330;52.210;21.174;2022-10-16T03:31:04;19.92;;;17.10;;
18407;SDS011;9330;52.210;21.174;2022-10-16T03:33:31;20.65;;;16.85;;
18407;SDS011;9330;52.210;21.174;2022-10-16T03:35:58;20.90;;;17.33;;
18407;SDS011;9330;52.210;21.174;2022-10-16T03:38:27;20.77;;;16.38;;
18407;SDS011;9330;52.210;21.174;2022-10-16T03:40:54;21.38;;;16.60;;
18407;SDS011;9330;52.210;21.174;2022-10-16T03:43:21;21.02;;;15.55;;
18407;SDS011;9330;52.210;21.174;2022-10-16T03:45:49;17.77;;;15.85;;
18407;SDS011;9330;52.210;21.174;2022-10-16T03:48:16;24.00;;;17.83;;
18407;SDS011;9330;52.210;21.174;2022-10-16T03:50:43;19.83;;;15.80;;
18407;SDS011;9330;52.210;21.174;2022-10-16T03:53:11;19.50;;;15.98;;
18407;SDS011;9330;52.210;21.174;2022-10-16T03:55:40;20.58;;;15.57;;
18407;SDS011;9330;52.210;21.174;2022-10-16T03:58:07;21.27;;;15.93;;
18407;SDS011;9330;52.210;21.174;2022-10-16T04:00:34;20.55;;;15.73;;
18407;SDS011;9330;52.210;21.174;2022-10-16T04:03:01;20.85;;;17.05;;
18407;SDS011;9330;52.210;21.174;2022-10-16T04:05:28;18.65;;;16.08;;
18407;SDS011;9330;52.210;21.174;2022-10-16T04:07:55;19.67;;;16.45;;
18407;SDS011;9330;52.210;21.174;2022-10-16T04:10:22;20.55;;;15.93;;
18407;SDS011;9330;52.210;21.174;2022-10-16T04:12:50;22.48;;;15.75;;
18407;SDS011;9330;52.210;21.174;2022-10-16T04:15:19;18.85;;;16.13;;
18407;SDS011;9330;52.210;21.174;2022-10-16T04:17:46;18.77;;;15.85;;
18407;SDS011;9330;52.210;21.174;2022-10-16T04:20:13;19.30;;;15.90;;
18407;SDS011;9330;52.210;21.174;2022-10-16T04:22:41;17.92;;;14.82;;
18407;SDS011;9330;52.210;21.174;2022-10-16T04:25:08;17.33;;;14.48;;
18407;SDS011;9330;52.210;21.174;2022-10-16T04:27:36;18.98;;;15.10;;
18407;SDS011;9330;52.210;21.174;2022-10-16T04:30:06;22.20;;;15.32;;
18407;SDS011;9330;52.210;21.174;2022-10-16T04:32:33;19.13;;;15.80;;
18407;SDS011;9330;52.210;21.174;2022-10-16T04:35:00;18.23;;;15.77;;
18407;SDS011;9330;52.210;21.174;2022-10-16T04:37:28;18.30;;;13.95;;
18407;SDS011;9330;52.210;21.174;2022-10-16T04:39:55;19.70;;;15.65;;
18407;SDS011;9330;52.210;21.174;2022-10-16T04:42:22;17.88;;;14.98;;
18407;SDS011;9330;52.210;21.174;2022-10-16T04:44:49;18.08;;;15.18;;
18407;SDS011;9330;52.210;21.174;2022-10-16T04:47:18;16.58;;;14.23;;
18407;SDS011;9330;52.210;21.174;2022-10-16T04:49:45;19.30;;;15.65;;
18407;SDS011;9330;52.210;21.174;2022-10-16T04:52:12;19.42;;;15.48;;
18407;SDS011;9330;52.210;21.174;2022-10-16T04:54:39;19.40;;;15.25;;
18407;SDS011;9330;52.210;21.174;2022-10-16T04:57:06;16.67;;;14.57;;
18407;SDS011;9330;52.210;21.174;2022-10-16T04:59:33;19.23;;;15.13;;
18407;SDS011;9330;52.210;21.174;2022-10-16T05:02:00;18.83;;;15.48;;
18407;SDS011;9330;52.210;21.174;2022-10-16T05:04:29;18.52;;;15.20;;
18407;SDS011;9330;52.210;21.174;2022-10-16T05:06:56;17.27;;;14.90;;
18407;SDS011;9330;52.210;21.174;2022-10-16T05:09:23;17.48;;;15.15;;
18407;SDS011;9330;52.210;21.174;2022-10-16T05:11:50;17.23;;;14.95;;
18407;SDS011;9330;52.210;21.174;2022-10-16T05:14:17;18.02;;;15.00;;
18407;SDS011;9330;52.210;21.174;2022-10-16T05:16:44;19.30;;;15.57;;
18407;SDS011;9330;52.210;21.174;2022-10-16T05:19:13;19.75;;;15.35;;
18407;SDS011;9330;52.210;21.174;2022-10-16T05:21:41;18.90;;;15.18;;
18407;SDS011;9330;52.210;21.174;2022-10-16T05:24:08;17.35;;;14.73;;
18407;SDS011;9330;52.210;21.174;2022-10-16T05:26:35;15.98;;;14.27;;
18407;SDS011;9330;52.210;21.174;2022-10-16T05:29:02;17.73;;;14.88;;
18407;SDS011;9330;52.210;21.174;2022-10-16T05:31:29;19.05;;;15.25;;
18407;SDS011;9330;52.210;21.174;2022-10-16T05:33:57;17.80;;;14.90;;
18407;SDS011;9330;52.210;21.174;2022-10-16T05:36:25;17.35;;;14.68;;
18407;SDS011;9330;52.210;21.174;2022-10-16T05:38:54;18.88;;;14.80;;
18407;SDS011;9330;52.210;21.174;2022-10-16T05:41:21;18.02;;;14.68;;
18407;SDS011;9330;52.210;21.174;2022-10-16T05:43:50;18.13;;;14.90;;
18407;SDS011;9330;52.210;21.174;2022-10-16T05:46:17;17.83;;;14.80;;
18407;SDS011;9330;52.210;21.174;2022-10-16T05:48:45;15.98;;;14.27;;
18407;SDS011;9330;52.210;21.174;2022-10-16T05:51:12;17.60;;;14.82;;
18407;SDS011;9330;52.210;21.174;2022-10-16T05:53:41;15.65;;;13.90;;
18407;SDS011;9330;52.210;21.174;2022-10-16T05:56:10;19.23;;;15.07;;
18407;SDS011;9330;52.210;21.174;2022-10-16T05:58:38;18.00;;;13.68;;
18407;SDS011;9330;52.210;21.174;2022-10-16T06:01:07;16.85;;;14.57;;
18407;SDS011;9330;52.210;21.174;2022-10-16T06:03:36;15.43;;;13.63;;
18407;SDS011;9330;52.210;21.174;2022-10-16T06:06:09;18.40;;;13.60;;
18407;SDS011;9330;52.210;21.174;2022-10-16T06:08:38;19.00;;;15.48;;
18407;SDS011;9330;52.210;21.174;2022-10-16T06:11:06;14.88;;;13.23;;
18407;SDS011;9330;52.210;21.174;2022-10-16T06:13:36;16.30;;;13.65;;
18407;SDS011;9330;52.210;21.174;2022-10-16T06:16:04;19.95;;;14.50;;
18407;SDS011;9330;52.210;21.174;2022-10-16T06:18:31;15.45;;;13.55;;
18407;SDS011;9330;52.210;21.174;2022-10-16T06:20:59;15.68;;;14.00;;
18407;SDS011;9330;52.210;21.174;2022-10-16T06:23:27;17.45;;;14.07;;
18407;SDS011;9330;52.210;21.174;2022-10-16T06:26:03;16.13;;;13.80;;
18407;SDS011;9330;52.210;21.174;2022-10-16T06:28:31;17.27;;;14.13;;
18407;SDS011;9330;52.210;21.174;2022-10-16T06:31:00;15.82;;;14.13;;
18407;SDS011;9330;52.210;21.174;2022-10-16T06:33:27;15.63;;;13.50;;
18407;SDS011;9330;52.210;21.174;2022-10-16T06:35:59;15.70;;;13.88;;
18407;SDS011;9330;52.210;21.174;2022-10-16T06:38:27;20.30;;;14.25;;
18407;SDS011;9330;52.210;21.174;2022-10-16T06:40:54;17.23;;;14.00;;
18407;SDS011;9330;52.210;21.174;2022-10-16T06:43:21;16.83;;;14.93;;
18407;SDS011;9330;52.210;21.174;2022-10-16T06:45:50;16.75;;;13.02;;
18407;SDS011;9330;52.210;21.174;2022-10-16T06:48:19;15.25;;;13.65;;
18407;SDS011;9330;52.210;21.174;2022-10-16T06:50:54;18.05;;;13.95;;
18407;SDS011;9330;52.210;21.174;2022-10-16T06:53:22;15.55;;;13.77;;
18407;SDS011;9330;52.210;21.174;2022-10-16T06:55:49;14.35;;;12.70;;
18407;SDS011;9330;52.210;21.174;2022-10-16T06:58:17;15.70;;;12.93;;
18407;SDS011;9330;52.210;21.174;2022-10-16T07:00:44;15.88;;;13.02;;
18407;SDS011;9330;52.210;21.174;2022-10-16T07:03:11;19.65;;;14.40;;
18407;SDS011;9330;52.210;21.174;2022-10-16T07:05:41;16.02;;;13.90;;
18407;SDS011;9330;52.210;21.174;2022-10-16T07:08:08;14.10;;;12.30;;
18407;SDS011;9330;52.210;21.174;2022-10-16T07:10:36;16.83;;;12.32;;
18407;SDS011;9330;52.210;21.174;2022-10-16T07:13:03;16.70;;;13.40;;
18407;SDS011;9330;52.210;21.174;2022-10-16T07:15:30;14.75;;;12.00;;
18407;SDS011;9330;52.210;21.174;2022-10-16T07:17:57;14.82;;;11.98;;
18407;SDS011;9330;52.210;21.174;2022-10-16T07:20:24;18.27;;;13.18;;
18407;SDS011;9330;52.210;21.174;2022-10-16T07:22:53;16.90;;;13.45;;
18407;SDS011;9330;52.210;21.174;2022-10-16T07:25:20;13.27;;;11.88;;
18407;SDS011;9330;52.210;21.174;2022-10-16T07:27:47;13.30;;;11.77;;
18407;SDS011;9330;52.210;21.174;2022-10-16T07:30:14;15.40;;;13.32;;
18407;SDS011;9330;52.210;21.174;2022-10-16T07:32:41;12.60;;;11.15;;
18407;SDS011;9330;52.210;21.174;2022-10-16T07:35:08;15.60;;;12.27;;
18407;SDS011;9330;52.210;21.174;2022-10-16T07:37:35;14.45;;;12.05;;
18407;SDS011;9330;52.210;21.174;2022-10-16T07:40:05;15.88;;;12.93;;
18407;SDS011;9330;52.210;21.174;2022-10-16T07:42:32;13.95;;;11.45;;
18407;SDS011;9330;52.210;21.174;2022-10-16T07:44:59;15.93;;;12.57;;
18407;SDS011;9330;52.210;21.174;2022-10-16T07:47:26;16.83;;;12.95;;
18407;SDS011;9330;52.210;21.174;2022-10-16T07:49:53;12.52;;;10.95;;
18407;SDS011;9330;52.210;21.174;2022-10-16T07:52:20;14.35;;;12.13;;
18407;SDS011;9330;52.210;21.174;2022-10-16T07:54:47;13.75;;;12.15;;
18407;SDS011;9330;52.210;21.174;2022-10-16T07:57:16;13.85;;;12.38;;
18407;SDS011;9330;52.210;21.174;2022-10-16T07:59:44;14.68;;;12.65;;
18407;SDS011;9330;52.210;21.174;2022-10-16T08:02:12;13.25;;;11.85;;
18407;SDS011;9330;52.210;21.174;2022-10-16T08:04:39;13.70;;;11.13;;
18407;SDS011;9330;52.210;21.174;2022-10-16T08:07:06;14.65;;;11.23;;
18407;SDS011;9330;52.210;21.174;2022-10-16T08:09:34;15.05;;;10.90;;
18407;SDS011;9330;52.210;21.174;2022-10-16T08:12:01;12.25;;;10.95;;
18407;SDS011;9330;52.210;21.174;2022-10-16T08:14:30;12.30;;;10.55;;
18407;SDS011;9330;52.210;21.174;2022-10-16T08:16:58;13.65;;;11.18;;
18407;SDS011;9330;52.210;21.174;2022-10-16T08:19:29;11.57;;;10.38;;
18407;SDS011;9330;52.210;21.174;2022-10-16T08:21:59;11.00;;;9.88;;
18407;SDS011;9330;52.210;21.174;2022-10-16T08:24:26;11.63;;;10.00;;
18407;SDS011;9330;52.210;21.174;2022-10-16T08:26:55;12.63;;;10.05;;
18407;SDS011;9330;52.210;21.174;2022-10-16T08:29:23;11.20;;;10.07;;
18407;SDS011;9330;52.210;21.174;2022-10-16T08:31:52;12.35;;;10.30;;
18407;SDS011;9330;52.210;21.174;2022-10-16T08:34:19;10.93;;;9.80;;
18407;SDS011;9330;52.210;21.174;2022-10-16T08:36:52;10.38;;;9.35;;
18407;SDS011;9330;52.210;21.174;2022-10-16T08:39:24;12.35;;;9.88;;
18407;SDS011;9330;52.210;21.174;2022-10-16T08:41:56;11.32;;;9.63;;
18407;SDS011;9330;52.210;21.174;2022-10-16T08:44:37;14.50;;;10.20;;
18407;SDS011;9330;52.210;21.174;2022-10-16T08:47:26;9.95;;;8.90;;
18407;SDS011;9330;52.210;21.174;2022-10-16T08:50:08;11.60;;;9.77;;
18407;SDS011;9330;52.210;21.174;2022-10-16T08:52:39;12.57;;;9.90;;
18407;SDS011;9330;52.210;21.174;2022-10-16T08:55:08;10.95;;;9.43;;
18407;SDS011;9330;52.210;21.174;2022-10-16T08:57:45;11.65;;;9.45;;
18407;SDS011;9330;52.210;21.174;2022-10-16T09:00:13;10.98;;;9.52;;
18407;SDS011;9330;52.210;21.174;2022-10-16T09:02:44;12.65;;;9.20;;
18407;SDS011;9330;52.210;21.174;2022-10-16T09:05:18;11.35;;;9.48;;
18407;SDS011;9330;52.210;21.174;2022-10-16T09:07:53;10.90;;;9.27;;
18407;SDS011;9330;52.210;21.174;2022-10-16T09:10:30;11.90;;;9.60;;
18407;SDS011;9330;52.210;21.174;2022-10-16T09:13:07;10.20;;;9.02;;
18407;SDS011;9330;52.210;21.174;2022-10-16T09:15:44;10.68;;;9.38;;
18407;SDS011;9330;52.210;21.174;2022-10-16T09:18:19;10.57;;;8.85;;
18407;SDS011;9330;52.210;21.174;2022-10-16T09:20:51;13.52;;;9.65;;
18407;SDS011;9330;52.210;21.174;2022-10-16T09:23:26;11.27;;;9.77;;
18407;SDS011;9330;52.210;21.174;2022-10-16T09:25:55;10.55;;;9.45;;
18407;SDS011;9330;52.210;21.174;2022-10-16T09:28:24;12.85;;;9.50;;
18407;SDS011;9330;52.210;21.174;2022-10-16T09:30:51;10.10;;;8.93;;
18407;SDS011;9330;52.210;21.174;2022-10-16T09:33:22;10.85;;;8.80;;
18407;SDS011;9330;52.210;21.174;2022-10-16T09:35:52;12.40;;;9.27;;
18407;SDS011;9330;52.210;21.174;2022-10-16T09:38:21;11.77;;;9.07;;
18407;SDS011;9330;52.210;21.174;2022-10-16T09:40:50;14.07;;;8.93;;
18407;SDS011;9330;52.210;21.174;2022-10-16T09:43:22;11.50;;;9.73;;
18407;SDS011;9330;52.210;21.174;2022-10-16T09:45:53;13.32;;;9.43;;
18407;SDS011;9330;52.210;21.174;2022-10-16T09:48:23;9.57;;;8.57;;
18407;SDS011;9330;52.210;21.174;2022-10-16T09:50:56;9.20;;;8.30;;
18407;SDS011;9330;52.210;21.174;2022-10-16T09:53:24;10.15;;;9.05;;
18407;SDS011;9330;52.210;21.174;2022-10-16T09:56:03;9.65;;;8.50;;
18407;SDS011;9330;52.210;21.174;2022-10-16T09:58:31;14.00;;;9.02;;
18407;SDS011;9330;52.210;21.174;2022-10-16T10:01:00;10.55;;;9.13;;
18407;SDS011;9330;52.210;21.174;2022-10-16T10:03:34;9.82;;;8.82;;
18407;SDS011;9330;52.210;21.174;2022-10-16T10:06:06;11.80;;;9.40;;
18407;SDS011;9330;52.210;21.174;2022-10-16T10:08:52;9.63;;;8.63;;
18407;SDS011;9330;52.210;21.174;2022-10-16T10:11:43;9.80;;;8.73;;
18407;SDS011;9330;52.210;21.174;2022-10-16T10:14:20;10.02;;;8.50;;
18407;SDS011;9330;52.210;21.174;2022-10-16T10:17:02;10.02;;;8.70;;
18407;SDS011;9330;52.210;21.174;2022-10-16T10:19:39;10.25;;;9.18;;
18407;SDS011;9330;52.210;21.174;2022-10-16T10:22:16;11.02;;;8.55;;
18407;SDS011;9330;52.210;21.174;2022-10-16T10:24:54;9.85;;;8.85;;
18407;SDS011;9330;52.210;21.174;2022-10-16T10:27:23;10.82;;;8.77;;
18407;SDS011;9330;52.210;21.174;2022-10-16T10:29:57;11.10;;;9.45;;
18407;SDS011;9330;52.210;21.174;2022-10-16T10:32:31;10.93;;;9.02;;
18407;SDS011;9330;52.210;21.174;2022-10-16T10:35:11;10.55;;;8.52;;
18407;SDS011;9330;52.210;21.174;2022-10-16T10:37:56;11.70;;;9.60;;
18407;SDS011;9330;52.210;21.174;2022-10-16T10:40:39;10.07;;;9.07;;
18407;SDS011;9330;52.210;21.174;2022-10-16T10:43:19;9.70;;;8.70;;
18407;SDS011;9330;52.210;21.174;2022-10-16T10:45:59;9.93;;;8.90;;
18407;SDS011;9330;52.210;21.174;2022-10-16T10:48:43;11.63;;;9.02;;
18407;SDS011;9330;52.210;21.174;2022-10-16T10:51:22;11.48;;;8.68;;
18407;SDS011;9330;52.210;21.174;2022-10-16T10:54:01;10.15;;;9.05;;
18407;SDS011;9330;52.210;21.174;2022-10-16T10:56:43;9.75;;;8.75;;
18407;SDS011;9330;52.210;21.174;2022-10-16T10:59:29;10.73;;;8.27;;
18407;SDS011;9330;52.210;21.174;2022-10-16T11:02:13;11.40;;;8.82;;
18407;SDS011;9330;52.210;21.174;2022-10-16T11:04:49;9.68;;;7.93;;
18407;SDS011;9330;52.210;21.174;2022-10-16T11:07:43;9.27;;;8.23;;
18407;SDS011;9330;52.210;21.174;2022-10-16T11:10:15;9.02;;;8.07;;
18407;SDS011;9330;52.210;21.174;2022-10-16T11:12:47;9.25;;;8.27;;
18407;SDS011;9330;52.210;21.174;2022-10-16T11:15:20;8.68;;;7.80;;
18407;SDS011;9330;52.210;21.174;2022-10-16T11:17:52;8.63;;;7.72;;
18407;SDS011;9330;52.210;21.174;2022-10-16T11:20:24;9.57;;;8.35;;
18407;SDS011;9330;52.210;21.174;2022-10-16T11:22:56;10.18;;;8.63;;
18407;SDS011;9330;52.210;21.174;2022-10-16T11:25:29;10.30;;;8.90;;
18407;SDS011;9330;52.210;21.174;2022-10-16T11:27:59;9.85;;;8.85;;
18407;SDS011;9330;52.210;21.174;2022-10-16T11:30:33;12.05;;;8.90;;
18407;SDS011;9330;52.210;21.174;2022-10-16T11:33:10;11.23;;;9.52;;
18407;SDS011;9330;52.210;21.174;2022-10-16T11:35:52;11.13;;;8.40;;
18407;SDS011;9330;52.210;21.174;2022-10-16T11:38:26;11.48;;;8.63;;
18407;SDS011;9330;52.210;21.174;2022-10-16T11:40:58;9.80;;;8.55;;
18407;SDS011;9330;52.210;21.174;2022-10-16T11:43:29;11.23;;;8.32;;
18407;SDS011;9330;52.210;21.174;2022-10-16T11:46:02;9.75;;;8.02;;
18407;SDS011;9330;52.210;21.174;2022-10-16T11:48:35;10.68;;;8.20;;
18407;SDS011;9330;52.210;21.174;2022-10-16T11:51:09;10.15;;;8.27;;
18407;SDS011;9330;52.210;21.174;2022-10-16T11:53:44;9.63;;;7.80;;
18407;SDS011;9330;52.210;21.174;2022-10-16T11:56:18;9.82;;;7.72;;
18407;SDS011;9330;52.210;21.174;2022-10-16T11:58:51;10.15;;;7.78;;
18407;SDS011;9330;52.210;21.174;2022-10-16T12:01:26;10.15;;;7.93;;
18407;SDS011;9330;52.210;21.174;2022-10-16T12:04:13;8.75;;;7.40;;
18407;SDS011;9330;52.210;21.174;2022-10-16T12:06:46;10.85;;;7.97;;
18407;SDS011;9330;52.210;21.174;2022-10-16T12:09:21;7.93;;;7.18;;
18407;SDS011;9330;52.210;21.174;2022-10-16T12:11:52;10.50;;;7.43;;
18407;SDS011;9330;52.210;21.174;2022-10-16T12:14:33;7.57;;;6.88;;
18407;SDS011;9330;52.210;21.174;2022-10-16T12:17:03;9.50;;;7.68;;
18407;SDS011;9330;52.210;21.174;2022-10-16T12:19:56;8.02;;;7.00;;
18407;SDS011;9330;52.210;21.174;2022-10-16T12:22:26;7.68;;;6.88;;
18407;SDS011;9330;52.210;21.174;2022-10-16T12:24:57;9.02;;;7.97;;
18407;SDS011;9330;52.210;21.174;2022-10-16T12:29:59;7.63;;;6.90;;
18407;SDS011;9330;52.210;21.174;2022-10-16T12:32:29;9.25;;;7.25;;
18407;SDS011;9330;52.210;21.174;2022-10-16T12:35:00;9.73;;;7.53;;
18407;SDS011;9330;52.210;21.174;2022-10-16T12:37:29;8.60;;;7.68;;
18407;SDS011;9330;52.210;21.174;2022-10-16T12:40:10;8.32;;;7.40;;
18407;SDS011;9330;52.210;21.174;2022-10-16T12:42:39;11.25;;;7.75;;
18407;SDS011;9330;52.210;21.174;2022-10-16T12:45:21;8.02;;;7.20;;
18407;SDS011;9330;52.210;21.174;2022-10-16T12:47:52;8.13;;;6.90;;
18407;SDS011;9330;52.210;21.174;2022-10-16T12:50:24;8.38;;;7.25;;
18407;SDS011;9330;52.210;21.174;2022-10-16T12:53:00;8.35;;;7.22;;
18407;SDS011;9330;52.210;21.174;2022-10-16T12:55:31;8.57;;;6.78;;
18407;SDS011;9330;52.210;21.174;2022-10-16T12:58:11;8.80;;;7.20;;
18407;SDS011;9330;52.210;21.174;2022-10-16T13:00:47;7.72;;;6.93;;
18407;SDS011;9330;52.210;21.174;2022-10-16T13:06:20;8.15;;;7.07;;
18407;SDS011;9330;52.210;21.174;2022-10-16T13:11:52;8.95;;;6.97;;
18407;SDS011;9330;52.210;21.174;2022-10-16T13:14:32;10.23;;;7.75;;
18407;SDS011;9330;52.210;21.174;2022-10-16T13:17:20;9.45;;;7.00;;
18407;SDS011;9330;52.210;21.174;2022-10-16T13:19:55;9.30;;;7.05;;
18407;SDS011;9330;52.210;21.174;2022-10-16T13:22:29;8.38;;;7.45;;
18407;SDS011;9330;52.210;21.174;2022-10-16T13:25:05;8.02;;;7.22;;
18407;SDS011;9330;52.210;21.174;2022-10-16T13:27:47;8.10;;;7.30;;
18407;SDS011;9330;52.210;21.174;2022-10-16T13:30:20;7.97;;;6.85;;
18407;SDS011;9330;52.210;21.174;2022-10-16T13:32:50;7.53;;;6.40;;
18407;SDS011;9330;52.210;21.174;2022-10-16T13:35:23;7.75;;;6.97;;
18407;SDS011;9330;52.210;21.174;2022-10-16T13:38:02;10.50;;;7.75;;
18407;SDS011;9330;52.210;21.174;2022-10-16T13:40:47;9.15;;;7.35;;
18407;SDS011;9330;52.210;21.174;2022-10-16T13:43:20;7.88;;;7.15;;
18407;SDS011;9330;52.210;21.174;2022-10-16T13:45:57;10.35;;;7.13;;
18407;SDS011;9330;52.210;21.174;2022-10-16T13:48:27;8.52;;;7.00;;
18407;SDS011;9330;52.210;21.174;2022-10-16T13:51:01;8.10;;;7.05;;
18407;SDS011;9330;52.210;21.174;2022-10-16T13:53:31;8.85;;;7.07;;
18407;SDS011;9330;52.210;21.174;2022-10-16T13:56:00;7.65;;;6.90;;
18407;SDS011;9330;52.210;21.174;2022-10-16T13:58:31;8.20;;;7.03;;
18407;SDS011;9330;52.210;21.174;2022-10-16T14:00:59;7.85;;;7.03;;
18407;SDS011;9330;52.210;21.174;2022-10-16T14:03:27;9.68;;;6.88;;
18407;SDS011;9330;52.210;21.174;2022-10-16T14:05:56;7.68;;;6.97;;
18407;SDS011;9330;52.210;21.174;2022-10-16T14:08:26;7.05;;;6.35;;
18407;SDS011;9330;52.210;21.174;2022-10-16T14:10:55;9.18;;;6.72;;
18407;SDS011;9330;52.210;21.174;2022-10-16T14:13:29;8.25;;;7.40;;
18407;SDS011;9330;52.210;21.174;2022-10-16T14:16:04;8.15;;;7.35;;
18407;SDS011;9330;52.210;21.174;2022-10-16T14:18:33;7.47;;;6.75;;
18407;SDS011;9330;52.210;21.174;2022-10-16T14:21:04;8.18;;;7.32;;
18407;SDS011;9330;52.210;21.174;2022-10-16T14:23:34;9.65;;;7.32;;
18407;SDS011;9330;52.210;21.174;2022-10-16T14:26:13;10.88;;;8.35;;
18407;SDS011;9330;52.210;21.174;2022-10-16T14:28:43;9.88;;;8.02;;
18407;SDS011;9330;52.210;21.174;2022-10-16T14:31:21;10.48;;;8.55;;
18407;SDS011;9330;52.210;21.174;2022-10-16T14:33:52;9.48;;;7.43;;
18407;SDS011;9330;52.210;21.174;2022-10-16T14:36:19;9.25;;;7.85;;
18407;SDS011;9330;52.210;21.174;2022-10-16T14:38:48;8.98;;;7.80;;
18407;SDS011;9330;52.210;21.174;2022-10-16T14:41:20;9.70;;;7.97;;
18407;SDS011;9330;52.210;21.174;2022-10-16T14:43:51;9.52;;;7.93;;
18407;SDS011;9330;52.210;21.174;2022-10-16T14:46:21;10.05;;;8.23;;
18407;SDS011;9330;52.210;21.174;2022-10-16T14:48:54;8.05;;;7.25;;
18407;SDS011;9330;52.210;21.174;2022-10-16T14:51:26;8.45;;;7.65;;
18407;SDS011;9330;52.210;21.174;2022-10-16T14:53:53;8.35;;;7.45;;
18407;SDS011;9330;52.210;21.174;2022-10-16T14:56:21;9.57;;;7.82;;
18407;SDS011;9330;52.210;21.174;2022-10-16T14:58:51;8.18;;;7.32;;
18407;SDS011;9330;52.210;21.174;2022-10-16T15:01:19;10.05;;;7.97;;
18407;SDS011;9330;52.210;21.174;2022-10-16T15:03:46;9.95;;;7.10;;